Time;durP1;ratioP1;P1;durP2;ratioP2;P2;SDS_P1;SDS_P2;PMS_P1;PMS_P2;Temp;Humidity;BMP_temperature;BMP_pressure;BME280_temperature;BME280_humidity;BME280_pressure;Samples;Min_cycle;Max_cycle;Signal;HPM_P1;HPM_P2
2021/05/15 00:00:32;;;;;;;0.55;0.40;;;9.00;99.90;;;;;;5039587;28;20097;-77
2021/05/15 00:02:59;;;;;;;0.90;0.50;;;8.90;99.90;;;;;;5041117;28;20025;-78
2021/05/15 00:05:25;;;;;;;0.80;0.70;;;8.90;99.90;;;;;;5042300;28;20465;-77
2021/05/15 00:07:51;;;;;;;1.08;0.80;;;8.90;99.90;;;;;;5042007;28;20029;-78
2021/05/15 00:10:17;;;;;;;0.70;0.65;;;8.90;99.90;;;;;;5044392;28;20030;-77
2021/05/15 00:12:44;;;;;;;0.52;0.52;;;8.80;99.90;;;;;;5041851;28;20041;-78
2021/05/15 00:15:11;;;;;;;0.60;0.60;;;8.80;99.90;;;;;;5041597;28;20048;-77
2021/05/15 00:17:38;;;;;;;1.65;0.77;;;8.80;99.90;;;;;;5040634;28;20108;-78
2021/05/15 00:20:09;;;;;;;1.05;0.70;;;8.80;99.90;;;;;;5040111;28;20043;-78
2021/05/15 00:22:36;;;;;;;0.70;0.70;;;8.70;99.90;;;;;;5040163;28;20465;-78
2021/05/15 00:25:04;;;;;;;1.00;0.70;;;8.80;99.90;;;;;;5033536;28;20036;-77
2021/05/15 00:27:30;;;;;;;1.15;0.60;;;8.70;99.90;;;;;;5037399;28;20401;-78
2021/05/15 00:29:56;;;;;;;0.98;0.70;;;8.70;99.90;;;;;;5026450;28;20037;-78
2021/05/15 00:32:21;;;;;;;0.90;0.65;;;8.70;99.90;;;;;;5040173;28;20070;-78
2021/05/15 00:34:47;;;;;;;0.85;0.63;;;8.70;99.90;;;;;;5041870;28;20030;-77
2021/05/15 00:37:13;;;;;;;0.70;0.50;;;8.70;99.90;;;;;;5043271;28;20037;-78
2021/05/15 00:39:38;;;;;;;0.60;0.60;;;8.70;99.90;;;;;;5041455;28;20029;-78
2021/05/15 00:42:05;;;;;;;2.05;0.68;;;8.70;99.90;;;;;;5034759;28;20083;-78
2021/05/15 00:44:43;;;;;;;2.10;0.75;;;8.70;99.90;;;;;;5031240;28;20739;-76
2021/05/15 00:47:16;;;;;;;1.98;0.60;;;8.70;99.90;;;;;;5033269;28;20120;-78
2021/05/15 00:49:43;;;;;;;1.13;0.60;;;8.60;99.90;;;;;;5012550;28;20485;-78
2021/05/15 00:52:09;;;;;;;1.48;1.00;;;8.60;99.90;;;;;;5016272;28;20114;-78
2021/05/15 00:54:37;;;;;;;0.50;0.50;;;8.60;99.90;;;;;;5030521;28;20029;-78
2021/05/15 00:57:04;;;;;;;0.77;0.70;;;8.60;99.90;;;;;;5033470;28;20032;-78
2021/05/15 00:59:30;;;;;;;0.60;0.60;;;8.50;99.90;;;;;;5033787;28;20382;-78
2021/05/15 01:01:56;;;;;;;0.80;0.50;;;8.50;99.90;;;;;;5029443;28;20040;-77
2021/05/15 01:04:22;;;;;;;1.13;0.50;;;8.50;99.90;;;;;;5033470;28;20081;-79
2021/05/15 01:06:49;;;;;;;2.53;0.60;;;8.40;99.90;;;;;;5014930;28;20112;-79
2021/05/15 01:09:14;;;;;;;0.85;0.60;;;8.30;99.90;;;;;;5033596;28;20493;-78
2021/05/15 01:11:40;;;;;;;1.58;0.90;;;8.30;99.90;;;;;;5033073;28;20037;-79
2021/05/15 01:14:06;;;;;;;0.93;0.45;;;8.30;99.90;;;;;;5021964;28;20037;-77
2021/05/15 01:16:32;;;;;;;1.00;0.50;;;8.40;99.90;;;;;;5033989;28;20029;-79
2021/05/15 01:18:58;;;;;;;1.15;0.90;;;8.40;99.90;;;;;;5035267;28;20057;-78
2021/05/15 01:21:24;;;;;;;1.17;0.70;;;8.50;99.90;;;;;;5014659;28;20037;-79
2021/05/15 01:23:50;;;;;;;0.70;0.70;;;8.50;99.90;;;;;;5016510;28;20040;-79
2021/05/15 01:26:25;;;;;;;0.50;0.50;;;8.40;99.90;;;;;;5019571;28;20021;-79
2021/05/15 01:28:53;;;;;;;1.05;0.90;;;8.30;99.90;;;;;;5038242;28;20082;-79
2021/05/15 01:31:20;;;;;;;0.43;0.43;;;8.20;99.90;;;;;;5029887;28;20057;-79
2021/05/15 01:33:46;;;;;;;0.47;0.47;;;8.20;99.90;;;;;;5003896;28;20493;-79
2021/05/15 01:36:12;;;;;;;0.40;0.40;;;8.20;99.90;;;;;;5039210;28;20481;-79
2021/05/15 01:38:38;;;;;;;0.40;0.40;;;8.10;99.90;;;;;;5022398;28;20029;-79
2021/05/15 01:41:15;;;;;;;0.98;0.50;;;8.10;99.90;;;;;;5036858;28;20048;-79
2021/05/15 01:43:41;;;;;;;2.05;0.65;;;8.10;99.90;;;;;;5018643;28;20029;-79
2021/05/15 01:46:08;;;;;;;1.75;0.60;;;8.10;99.90;;;;;;5039361;28;20045;-77
2021/05/15 01:48:34;;;;;;;0.65;0.65;;;8.20;99.90;;;;;;5004639;28;20034;-79
2021/05/15 01:51:02;;;;;;;0.88;0.65;;;8.30;99.90;;;;;;5020445;28;20029;-79
2021/05/15 01:53:29;;;;;;;0.90;0.60;;;8.30;99.90;;;;;;5036023;28;20049;-78
2021/05/15 01:55:56;;;;;;;0.47;0.47;;;8.30;99.90;;;;;;5042547;28;20175;-78
2021/05/15 01:58:22;;;;;;;1.80;0.60;;;8.30;99.90;;;;;;5035698;28;20076;-79
2021/05/15 02:00:48;;;;;;;1.25;0.47;;;8.30;99.90;;;;;;5037627;28;20547;-79
2021/05/15 02:03:14;;;;;;;0.60;0.50;;;8.30;99.90;;;;;;5038648;28;20103;-79
2021/05/15 02:05:40;;;;;;;0.50;0.50;;;8.40;99.90;;;;;;5038862;28;20489;-79
2021/05/15 02:08:08;;;;;;;1.60;0.60;;;8.40;99.90;;;;;;5039865;28;20021;-78
2021/05/15 02:10:33;;;;;;;0.60;0.60;;;8.40;99.90;;;;;;5037395;28;20037;-79
2021/05/15 02:12:59;;;;;;;0.95;0.50;;;8.50;99.90;;;;;;5033354;28;20034;-80
2021/05/15 02:15:25;;;;;;;1.55;0.40;;;8.50;99.90;;;;;;4988888;28;20045;-79
2021/05/15 02:17:50;;;;;;;2.25;0.70;;;8.50;99.90;;;;;;5036029;28;20057;-77
2021/05/15 02:20:16;;;;;;;0.30;0.30;;;8.50;99.90;;;;;;5032636;28;20045;-77
2021/05/15 02:22:42;;;;;;;0.30;0.30;;;8.50;99.90;;;;;;5037230;28;20022;-78
2021/05/15 02:25:08;;;;;;;1.48;0.77;;;8.60;99.90;;;;;;5039035;28;20044;-79
2021/05/15 02:27:34;;;;;;;0.50;0.50;;;8.60;99.90;;;;;;5033045;28;20399;-78
2021/05/15 02:29:59;;;;;;;0.90;0.60;;;8.60;99.90;;;;;;5019681;28;20022;-79
2021/05/15 02:32:25;;;;;;;0.55;0.55;;;8.60;99.90;;;;;;5034295;28;20025;-78
2021/05/15 02:34:51;;;;;;;1.98;0.73;;;8.60;99.90;;;;;;5033360;28;20087;-78
2021/05/15 02:37:17;;;;;;;0.65;0.65;;;8.60;99.90;;;;;;5034778;28;20060;-78
2021/05/15 02:39:42;;;;;;;0.68;0.60;;;8.60;99.90;;;;;;5036742;28;20091;-78
2021/05/15 02:42:08;;;;;;;2.25;0.82;;;8.60;99.90;;;;;;5034258;28;20533;-79
2021/05/15 02:44:34;;;;;;;1.52;0.80;;;8.60;99.90;;;;;;5017872;28;20116;-78
2021/05/15 02:46:59;;;;;;;0.80;0.60;;;8.60;99.90;;;;;;5041325;28;20037;-78
2021/05/15 02:49:25;;;;;;;0.73;0.50;;;8.60;99.90;;;;;;5036547;28;20053;-78
2021/05/15 02:51:51;;;;;;;1.38;0.80;;;8.60;99.90;;;;;;5017690;28;20033;-79
2021/05/15 02:54:17;;;;;;;0.73;0.73;;;8.60;99.90;;;;;;5033651;28;20025;-78
2021/05/15 02:56:42;;;;;;;0.82;0.60;;;8.60;99.90;;;;;;5038023;28;20022;-79
2021/05/15 02:59:08;;;;;;;0.70;0.70;;;8.70;99.90;;;;;;5018792;28;20034;-79
2021/05/15 03:01:34;;;;;;;0.60;0.60;;;8.70;99.90;;;;;;5001601;28;20068;-78
2021/05/15 03:04:00;;;;;;;0.70;0.70;;;8.70;99.90;;;;;;5036723;28;20549;-79
2021/05/15 03:06:25;;;;;;;0.80;0.80;;;8.70;99.90;;;;;;5018994;28;20056;-79
2021/05/15 03:08:51;;;;;;;3.17;0.77;;;8.70;99.90;;;;;;5019166;28;20086;-78
2021/05/15 03:11:17;;;;;;;0.60;0.60;;;8.70;99.90;;;;;;5034205;28;20056;-79
2021/05/15 03:13:42;;;;;;;0.80;0.80;;;8.70;99.90;;;;;;5018051;28;20041;-78
2021/05/15 03:16:08;;;;;;;0.85;0.85;;;8.60;99.90;;;;;;5018879;28;20033;-78
2021/05/15 03:18:34;;;;;;;1.25;0.70;;;8.60;99.90;;;;;;5033173;28;20508;-79
2021/05/15 03:21:00;;;;;;;2.30;0.80;;;8.50;99.90;;;;;;5033768;28;20080;-79
2021/05/15 03:23:25;;;;;;;0.73;0.73;;;8.50;99.90;;;;;;5028157;28;20025;-78
2021/05/15 03:25:51;;;;;;;0.60;0.60;;;8.50;99.90;;;;;;5030983;28;20646;-79
2021/05/15 03:28:17;;;;;;;0.73;0.60;;;8.50;99.90;;;;;;5033838;28;20112;-78
2021/05/15 03:30:42;;;;;;;1.08;0.80;;;8.50;99.90;;;;;;5017980;28;20072;-76
2021/05/15 03:33:08;;;;;;;1.30;0.80;;;8.50;99.90;;;;;;5009937;28;20029;-77
2021/05/15 03:35:34;;;;;;;0.50;0.50;;;8.50;99.90;;;;;;5035481;28;20432;-78
2021/05/15 03:38:00;;;;;;;1.35;0.73;;;8.50;99.90;;;;;;5039357;28;20036;-79
2021/05/15 03:40:26;;;;;;;0.65;0.60;;;8.60;99.90;;;;;;5034598;28;20037;-79
2021/05/15 03:42:56;;;;;;;1.08;0.70;;;8.60;99.90;;;;;;5034640;28;20047;-79
2021/05/15 03:45:22;;;;;;;1.10;0.70;;;8.60;99.90;;;;;;5036709;28;20112;-79
2021/05/15 03:47:48;;;;;;;2.05;0.93;;;8.60;99.90;;;;;;5036594;28;20056;-79
2021/05/15 03:50:14;;;;;;;3.20;0.98;;;8.60;99.90;;;;;;5036689;28;20420;-79
2021/05/15 03:52:40;;;;;;;0.60;0.50;;;8.70;99.90;;;;;;5035412;28;20053;-78
2021/05/15 03:55:08;;;;;;;2.15;0.77;;;8.70;99.90;;;;;;5041247;28;20041;-79
2021/05/15 03:57:34;;;;;;;2.08;0.65;;;8.70;99.90;;;;;;5019559;28;20029;-79
2021/05/15 03:59:59;;;;;;;0.98;0.70;;;8.70;99.90;;;;;;5034509;28;20057;-78
2021/05/15 04:02:26;;;;;;;0.70;0.55;;;8.70;99.90;;;;;;5035593;28;20029;-78
2021/05/15 04:04:52;;;;;;;1.48;0.70;;;8.70;99.90;;;;;;5032271;28;20022;-79
2021/05/15 04:07:19;;;;;;;2.55;0.60;;;8.80;99.90;;;;;;5033297;28;20022;-79
2021/05/15 04:09:44;;;;;;;1.70;0.90;;;8.80;99.90;;;;;;5018577;28;20444;-79
2021/05/15 04:12:14;;;;;;;1.20;0.50;;;8.80;99.90;;;;;;5017482;28;20029;-79
2021/05/15 04:14:48;;;;;;;1.05;0.65;;;8.80;99.90;;;;;;5021777;28;20117;-78
2021/05/15 04:19:42;;;;;;;0.63;0.50;;;8.80;99.90;;;;;;5034321;28;20409;-79
2021/05/15 04:22:09;;;;;;;0.55;0.38;;;8.90;99.90;;;;;;5020124;28;20045;-78
2021/05/15 04:24:35;;;;;;;0.52;0.40;;;8.90;99.90;;;;;;5017480;28;20029;-79
2021/05/15 04:27:04;;;;;;;0.60;0.50;;;8.90;99.90;;;;;;5041659;28;20124;-78
2021/05/15 04:29:30;;;;;;;0.43;0.43;;;9.00;99.90;;;;;;5019077;28;20052;-79
2021/05/15 04:31:57;;;;;;;0.70;0.40;;;9.00;99.90;;;;;;5014804;28;20026;-78
2021/05/15 04:34:25;;;;;;;0.50;0.50;;;9.10;99.90;;;;;;5050931;28;20033;-79
2021/05/15 04:36:51;;;;;;;2.15;0.65;;;9.10;99.90;;;;;;5032914;28;20120;-78
2021/05/15 04:39:17;;;;;;;0.93;0.40;;;9.10;99.90;;;;;;5017404;28;20045;-78
2021/05/15 04:41:43;;;;;;;0.43;0.43;;;9.20;99.90;;;;;;5017470;28;20036;-78
2021/05/15 04:44:08;;;;;;;1.85;0.38;;;9.20;99.90;;;;;;5018030;28;20029;-79
2021/05/15 04:46:34;;;;;;;0.47;0.32;;;9.20;99.90;;;;;;5018083;28;20072;-78
2021/05/15 04:49:00;;;;;;;1.00;0.60;;;9.20;99.90;;;;;;5037831;28;20083;-79
2021/05/15 04:51:26;;;;;;;1.27;0.50;;;9.20;99.90;;;;;;5030483;28;20501;-79
2021/05/15 04:53:52;;;;;;;0.43;0.32;;;9.30;99.90;;;;;;5017084;28;20037;-79
2021/05/15 04:56:17;;;;;;;0.82;0.50;;;9.30;99.90;;;;;;5019114;28;20049;-78
2021/05/15 04:58:44;;;;;;;1.70;0.63;;;9.30;99.90;;;;;;5002472;28;20057;-78
2021/05/15 05:01:10;;;;;;;0.80;0.55;;;9.40;99.90;;;;;;5024726;28;20033;-79
2021/05/15 05:03:35;;;;;;;2.95;0.50;;;9.40;99.90;;;;;;4985686;28;20448;-78
2021/05/15 05:06:01;;;;;;;0.40;0.40;;;9.40;99.90;;;;;;5035624;28;20544;-78
2021/05/15 05:08:27;;;;;;;1.40;0.50;;;9.50;99.90;;;;;;5033782;28;20116;-79
2021/05/15 05:10:53;;;;;;;0.60;0.50;;;9.50;99.90;;;;;;5018378;28;20083;-76
2021/05/15 05:13:20;;;;;;;0.85;0.50;;;9.50;99.90;;;;;;5017448;28;20029;-78
2021/05/15 05:15:47;;;;;;;0.63;0.35;;;9.50;99.90;;;;;;5035785;28;20063;-78
2021/05/15 05:18:13;;;;;;;1.48;0.43;;;9.50;99.90;;;;;;5037248;28;20034;-79
2021/05/15 05:20:39;;;;;;;1.10;0.40;;;9.60;99.90;;;;;;5016128;28;20087;-79
2021/05/15 05:23:05;;;;;;;0.70;0.40;;;9.60;99.90;;;;;;5032608;28;20441;-79
2021/05/15 05:25:31;;;;;;;0.68;0.38;;;9.60;99.90;;;;;;5034199;28;20040;-79
2021/05/15 05:27:57;;;;;;;2.75;0.50;;;9.70;99.90;;;;;;5020070;28;20025;-79
2021/05/15 05:30:23;;;;;;;0.68;0.55;;;9.70;99.90;;;;;;5004854;28;20034;-79
2021/05/15 05:32:50;;;;;;;2.25;0.50;;;9.80;99.90;;;;;;5031239;28;20113;-79
2021/05/15 05:35:17;;;;;;;0.88;0.40;;;9.80;99.90;;;;;;5034964;28;20033;-78
2021/05/15 05:37:44;;;;;;;1.42;0.35;;;9.80;99.90;;;;;;5033627;28;20032;-79
2021/05/15 05:40:11;;;;;;;0.75;0.50;;;10.00;99.90;;;;;;5034021;28;20030;-79
2021/05/15 05:42:38;;;;;;;1.10;0.45;;;10.00;99.90;;;;;;5031602;28;20037;-79
2021/05/15 05:45:10;;;;;;;0.95;0.55;;;10.10;99.90;;;;;;5029839;28;20025;-79
2021/05/15 05:47:36;;;;;;;0.43;0.40;;;10.20;99.90;;;;;;5037385;28;20074;-79
2021/05/15 05:50:03;;;;;;;0.60;0.40;;;10.30;99.90;;;;;;5031675;28;20034;-79
2021/05/15 05:52:28;;;;;;;0.40;0.40;;;10.40;99.90;;;;;;5031417;28;20037;-78
2021/05/15 05:54:54;;;;;;;0.82;0.40;;;10.40;99.90;;;;;;5018766;28;20056;-77
2021/05/15 05:57:20;;;;;;;0.63;0.45;;;10.50;99.90;;;;;;4997543;28;20034;-79
2021/05/15 05:59:45;;;;;;;0.25;0.20;;;10.70;99.90;;;;;;5031399;28;20037;-78
2021/05/15 06:02:11;;;;;;;0.60;0.50;;;10.80;99.90;;;;;;5031623;28;20042;-79
2021/05/15 06:04:37;;;;;;;0.60;0.60;;;11.00;99.90;;;;;;5030378;28;20283;-78
2021/05/15 06:07:07;;;;;;;0.43;0.40;;;11.40;99.90;;;;;;5030808;28;20478;-78
2021/05/15 06:09:34;;;;;;;0.73;0.30;;;11.90;99.90;;;;;;5033720;28;20030;-78
2021/05/15 06:12:00;;;;;;;0.30;0.30;;;12.20;99.90;;;;;;5025156;28;20045;-79
2021/05/15 06:14:26;;;;;;;1.42;0.45;;;12.40;99.90;;;;;;5015557;28;20021;-79
2021/05/15 06:16:52;;;;;;;0.50;0.40;;;12.60;99.90;;;;;;5028320;28;20033;-79
2021/05/15 06:19:18;;;;;;;1.95;0.50;;;12.70;99.90;;;;;;5036259;28;20061;-79
2021/05/15 06:21:44;;;;;;;0.82;0.40;;;13.00;99.90;;;;;;5040934;28;20120;-79
2021/05/15 06:24:10;;;;;;;0.90;0.35;;;13.30;99.90;;;;;;5036912;28;20036;-79
2021/05/15 06:26:36;;;;;;;2.17;0.47;;;13.60;99.90;;;;;;5032229;28;20029;-80
2021/05/15 06:29:03;;;;;;;1.33;0.30;;;14.00;99.90;;;;;;5035277;28;20022;-80
2021/05/15 06:31:29;;;;;;;0.30;0.30;;;14.20;99.90;;;;;;5037920;28;20030;-79
2021/05/15 06:33:54;;;;;;;0.95;0.38;;;14.60;99.90;;;;;;5039509;28;20393;-79
2021/05/15 06:36:20;;;;;;;0.38;0.30;;;15.00;99.90;;;;;;5038293;28;20037;-80
2021/05/15 06:38:46;;;;;;;0.40;0.40;;;15.30;99.90;;;;;;5038781;28;20026;-79
2021/05/15 06:41:12;;;;;;;0.30;0.30;;;15.60;99.90;;;;;;5037290;28;20087;-79
2021/05/15 06:43:37;;;;;;;1.40;0.47;;;15.80;99.90;;;;;;5035355;28;20032;-80
2021/05/15 06:46:03;;;;;;;1.55;0.35;;;15.80;99.90;;;;;;5035309;28;20562;-79
2021/05/15 06:48:29;;;;;;;0.60;0.43;;;15.70;99.90;;;;;;5034130;28;20034;-79
2021/05/15 06:50:54;;;;;;;0.32;0.32;;;15.80;99.90;;;;;;5037276;28;20041;-79
2021/05/15 06:53:20;;;;;;;1.25;0.45;;;16.10;99.90;;;;;;5033748;28;20036;-78
2021/05/15 06:55:46;;;;;;;0.50;0.30;;;16.50;99.90;;;;;;5039868;28;20033;-79
2021/05/15 06:58:13;;;;;;;0.20;0.20;;;17.00;99.90;;;;;;5039942;28;20033;-79
2021/05/15 07:00:39;;;;;;;0.68;0.35;;;17.50;99.90;;;;;;5032687;28;20029;-78
2021/05/15 07:03:05;;;;;;;0.30;0.22;;;17.90;99.90;;;;;;5038850;28;20472;-79
2021/05/15 07:05:32;;;;;;;0.55;0.30;;;18.50;99.90;;;;;;5042927;28;20183;-79
2021/05/15 07:07:58;;;;;;;0.30;0.30;;;18.80;99.90;;;;;;5022602;28;20520;-78
2021/05/15 07:10:23;;;;;;;1.08;0.40;;;19.20;97.80;;;;;;5030972;28;20027;-79
2021/05/15 07:12:49;;;;;;;2.53;0.43;;;19.00;98.00;;;;;;5031898;28;20030;-79
2021/05/15 07:15:15;;;;;;;0.20;0.20;;;18.80;97.60;;;;;;5042779;28;20033;-79
2021/05/15 07:17:40;;;;;;;0.40;0.22;;;19.00;98.80;;;;;;5036406;28;20036;-79
2021/05/15 07:20:08;;;;;;;0.43;0.28;;;19.20;95.50;;;;;;5039812;28;20033;-78
2021/05/15 07:22:34;;;;;;;0.68;0.50;;;19.30;93.10;;;;;;5035373;28;20412;-79
2021/05/15 07:25:00;;;;;;;1.65;0.30;;;19.10;94.00;;;;;;5035831;28;20043;-79
2021/05/15 07:27:28;;;;;;;0.30;0.30;;;18.80;91.90;;;;;;5035771;28;20034;-78
2021/05/15 07:29:55;;;;;;;0.28;0.28;;;18.30;90.20;;;;;;5032788;28;20059;-79
2021/05/15 07:32:23;;;;;;;0.28;0.28;;;18.00;92.90;;;;;;5035753;28;20497;-79
2021/05/15 07:34:49;;;;;;;0.20;0.20;;;17.90;95.10;;;;;;5057331;28;20033;-79
2021/05/15 07:37:15;;;;;;;0.50;0.20;;;17.80;93.90;;;;;;5034206;28;20106;-79
2021/05/15 07:39:41;;;;;;;2.17;0.30;;;17.50;95.50;;;;;;5039143;28;20084;-79
2021/05/15 07:42:07;;;;;;;0.20;0.20;;;17.40;96.50;;;;;;5018609;28;20056;-79
2021/05/15 07:44:33;;;;;;;0.73;0.43;;;17.40;97.20;;;;;;5030817;28;20048;-78
2021/05/15 07:47:00;;;;;;;0.47;0.47;;;17.30;94.60;;;;;;5051571;28;20034;-78
2021/05/15 07:49:25;;;;;;;0.40;0.40;;;17.30;95.30;;;;;;5036851;28;20025;-79
2021/05/15 07:51:55;;;;;;;0.20;0.20;;;17.20;94.50;;;;;;5037578;28;20040;-79
2021/05/15 07:54:21;;;;;;;1.45;0.20;;;17.10;96.90;;;;;;5038992;28;20053;-79
2021/05/15 07:56:48;;;;;;;0.17;0.17;;;16.90;96.00;;;;;;5036631;28;20022;-79
2021/05/15 07:59:14;;;;;;;0.20;0.20;;;16.70;96.60;;;;;;5036580;28;20033;-78
2021/05/15 08:01:40;;;;;;;0.10;0.10;;;16.50;96.30;;;;;;5038006;28;20037;-79
2021/05/15 08:04:06;;;;;;;0.15;0.15;;;16.30;97.10;;;;;;5040529;28;20036;-79
2021/05/15 08:06:32;;;;;;;0.20;0.10;;;16.00;98.20;;;;;;5040471;28;20108;-79
2021/05/15 08:08:58;;;;;;;0.30;0.20;;;15.90;97.80;;;;;;5033904;28;20045;-79
2021/05/15 08:11:23;;;;;;;0.52;0.30;;;15.80;99.40;;;;;;5036134;28;20045;-79
2021/05/15 08:13:49;;;;;;;0.90;0.38;;;15.50;98.90;;;;;;5038289;28;20025;-79
2021/05/15 08:16:16;;;;;;;0.35;0.30;;;15.30;99.70;;;;;;5036463;28;20048;-79
2021/05/15 08:18:42;;;;;;;0.57;0.40;;;15.10;99.90;;;;;;5039244;28;20025;-79
2021/05/15 08:21:08;;;;;;;0.28;0.28;;;15.10;99.90;;;;;;5038030;28;20025;-78
2021/05/15 08:23:37;;;;;;;2.53;0.35;;;15.20;99.90;;;;;;5029148;28;20488;-79
2021/05/15 08:26:04;;;;;;;0.30;0.30;;;15.20;99.90;;;;;;5041059;28;20053;-80
2021/05/15 08:28:31;;;;;;;0.20;0.20;;;15.00;99.90;;;;;;5042130;28;20123;-79
2021/05/15 08:30:57;;;;;;;0.40;0.30;;;15.00;99.90;;;;;;5036174;28;20038;-78
2021/05/15 08:33:23;;;;;;;0.30;0.30;;;15.00;99.90;;;;;;5037038;28;20660;-78
2021/05/15 08:35:49;;;;;;;1.25;0.30;;;14.70;99.90;;;;;;5041853;28;20033;-78
2021/05/15 08:38:15;;;;;;;0.20;0.20;;;14.60;99.90;;;;;;5037247;28;20061;-78
2021/05/15 08:40:41;;;;;;;1.10;0.32;;;14.70;99.90;;;;;;5034213;28;20033;-78
2021/05/15 08:43:08;;;;;;;0.38;0.35;;;14.90;99.90;;;;;;5042753;28;20029;-78
2021/05/15 08:45:34;;;;;;;0.35;0.35;;;15.10;99.90;;;;;;5040262;28;20116;-77
2021/05/15 08:48:04;;;;;;;0.20;0.20;;;15.20;99.90;;;;;;5024920;28;20070;-78
2021/05/15 08:50:31;;;;;;;0.80;0.28;;;15.20;99.90;;;;;;5022992;28;20041;-77
2021/05/15 08:53:00;;;;;;;0.70;0.43;;;15.30;99.90;;;;;;5022038;28;20404;-76
2021/05/15 08:55:29;;;;;;;0.88;0.50;;;15.50;99.90;;;;;;5053157;28;20033;-77
2021/05/15 08:57:57;;;;;;;1.00;0.22;;;15.60;99.90;;;;;;5023412;28;20040;-77
2021/05/15 09:00:33;;;;;;;0.38;0.30;;;15.80;99.90;;;;;;5040223;28;20426;-78
2021/05/15 09:03:05;;;;;;;0.50;0.40;;;15.80;99.90;;;;;;5037723;28;20112;-78
2021/05/15 09:05:34;;;;;;;0.82;0.40;;;15.80;99.90;;;;;;5034547;28;20442;-77
2021/05/15 09:08:02;;;;;;;0.20;0.20;;;15.80;99.90;;;;;;5042039;28;20041;-77
2021/05/15 09:10:34;;;;;;;0.57;0.32;;;15.80;99.90;;;;;;5033175;28;20063;-78
2021/05/15 09:13:24;;;;;;;0.30;0.30;;;15.70;99.90;;;;;;5009405;28;20036;-76
2021/05/15 09:15:52;;;;;;;0.20;0.20;;;15.70;99.90;;;;;;5025643;28;20432;-77
2021/05/15 09:18:21;;;;;;;0.30;0.30;;;15.70;99.90;;;;;;5027330;28;20101;-78
2021/05/15 09:20:49;;;;;;;0.40;0.30;;;15.90;99.90;;;;;;5030573;28;20399;-78
2021/05/15 09:23:26;;;;;;;0.93;0.22;;;15.80;99.90;;;;;;5032698;28;20040;-78
2021/05/15 09:25:55;;;;;;;0.68;0.30;;;15.80;99.90;;;;;;5039841;28;20513;-77
2021/05/15 09:28:44;;;;;;;0.52;0.30;;;15.80;99.90;;;;;;5028246;28;20048;-78
2021/05/15 09:31:25;;;;;;;0.20;0.20;;;15.80;99.90;;;;;;5029725;28;20628;-78
2021/05/15 09:33:56;;;;;;;0.40;0.40;;;15.90;99.90;;;;;;5018279;28;20107;-77
2021/05/15 09:36:23;;;;;;;0.20;0.20;;;16.10;99.90;;;;;;5032363;28;20029;-77
2021/05/15 09:39:11;;;;;;;0.98;0.38;;;16.30;99.90;;;;;;5039556;28;20049;-78
2021/05/15 09:41:51;;;;;;;0.20;0.20;;;16.10;99.50;;;;;;5035447;28;20038;-77
2021/05/15 09:44:40;;;;;;;0.75;0.30;;;16.10;99.90;;;;;;5032638;28;20473;-78
2021/05/15 09:47:06;;;;;;;0.30;0.30;;;16.00;99.90;;;;;;5055982;28;20046;-78
2021/05/15 09:49:33;;;;;;;0.50;0.25;;;16.00;99.90;;;;;;5038124;28;20228;-77
2021/05/15 09:52:05;;;;;;;0.22;0.20;;;16.10;99.90;;;;;;5040893;28;20034;-78
2021/05/15 09:54:36;;;;;;;0.22;0.22;;;16.20;99.90;;;;;;5041239;28;20041;-77
2021/05/15 09:57:11;;;;;;;0.30;0.25;;;16.30;99.90;;;;;;5040836;28;20095;-77
2021/05/15 09:59:39;;;;;;;0.30;0.30;;;16.40;98.50;;;;;;5032693;28;20147;-77
2021/05/15 10:02:11;;;;;;;0.20;0.20;;;16.50;99.90;;;;;;5027052;28;20080;-78
2021/05/15 10:04:40;;;;;;;0.32;0.20;;;16.50;95.40;;;;;;5028591;28;20045;-78
2021/05/15 10:07:18;;;;;;;0.30;0.20;;;16.50;99.30;;;;;;5032860;28;20508;-78
2021/05/15 10:09:44;;;;;;;0.20;0.20;;;16.30;96.00;;;;;;5034396;28;20488;-78
2021/05/15 10:12:10;;;;;;;1.65;0.20;;;16.30;98.40;;;;;;5029317;28;20049;-78
2021/05/15 10:14:36;;;;;;;0.20;0.20;;;16.40;96.50;;;;;;5033197;28;20029;-79
2021/05/15 10:17:02;;;;;;;0.35;0.10;;;16.40;99.90;;;;;;5037897;28;20068;-78
2021/05/15 10:19:29;;;;;;;0.20;0.20;;;16.50;96.20;;;;;;5036835;28;20035;-78
2021/05/15 10:21:56;;;;;;;0.20;0.20;;;16.50;99.00;;;;;;5033820;28;20037;-77
2021/05/15 10:24:25;;;;;;;0.90;0.30;;;16.60;97.80;;;;;;5034485;28;20108;-77
2021/05/15 10:27:04;;;;;;;0.10;0.10;;;16.70;97.80;;;;;;5032039;28;20022;-77
2021/05/15 10:29:39;;;;;;;0.45;0.38;;;16.70;95.80;;;;;;5033207;28;20025;-77
2021/05/15 10:32:08;;;;;;;;;;;16.70;96.40;;;;;;5032261;28;20018;-77
2021/05/15 10:34:34;;;;;;;1.58;0.25;;;16.70;95.90;;;;;;5032966;28;19908;-77
2021/05/15 10:37:03;;;;;;;2.75;0.38;;;16.50;94.50;;;;;;5035748;28;20024;-77
2021/05/15 10:39:33;;;;;;;0.30;0.22;;;16.40;94.70;;;;;;5033054;28;20025;-80
2021/05/15 10:42:01;;;;;;;0.20;0.20;;;16.40;97.20;;;;;;5036325;28;20037;-78
2021/05/15 10:44:42;;;;;;;0.50;0.10;;;16.30;96.60;;;;;;5029064;28;20032;-78
2021/05/15 10:47:08;;;;;;;0.15;0.15;;;16.20;96.20;;;;;;5033414;28;20030;-78
2021/05/15 10:49:35;;;;;;;0.30;0.10;;;16.20;96.70;;;;;;5031891;28;20172;-78
2021/05/15 10:52:09;;;;;;;0.13;0.13;;;16.20;96.60;;;;;;5034004;28;20080;-78
2021/05/15 10:54:38;;;;;;;0.10;0.10;;;16.30;95.80;;;;;;5033967;28;20049;-78
2021/05/15 10:57:24;;;;;;;0.10;0.10;;;16.30;97.30;;;;;;5037059;28;20033;-78
2021/05/15 10:59:58;;;;;;;0.70;0.30;;;16.20;97.50;;;;;;5036640;28;20101;-78
2021/05/15 11:02:31;;;;;;;0.35;0.20;;;16.30;99.90;;;;;;5031258;28;20501;-78
2021/05/15 11:05:02;;;;;;;0.10;0.10;;;16.40;95.20;;;;;;5035484;28;20032;-77
2021/05/15 11:07:34;;;;;;;1.15;0.30;;;16.60;96.40;;;;;;5037197;28;20563;-77
2021/05/15 11:10:03;;;;;;;0.10;0.10;;;16.60;94.50;;;;;;5037424;28;20116;-77
2021/05/15 11:12:30;;;;;;;0.20;0.20;;;16.70;95.50;;;;;;5035675;28;20043;-77
2021/05/15 11:15:05;;;;;;;0.40;0.20;;;16.80;95.20;;;;;;5034105;28;20037;-80
2021/05/15 11:17:31;;;;;;;0.40;0.40;;;16.80;92.00;;;;;;5034207;28;20812;-79
2021/05/15 11:20:19;;;;;;;0.32;0.20;;;16.80;94.10;;;;;;5033888;28;20112;-79
2021/05/15 11:22:53;;;;;;;0.30;0.30;;;16.80;92.70;;;;;;5032537;28;20129;-78
2021/05/15 11:25:24;;;;;;;0.22;0.17;;;16.70;94.60;;;;;;5029614;28;20097;-80
2021/05/15 11:27:57;;;;;;;0.30;0.30;;;17.00;98.50;;;;;;5034239;28;20033;-79
2021/05/15 11:30:26;;;;;;;0.85;0.25;;;17.20;95.70;;;;;;5031394;28;20546;-80
2021/05/15 11:32:59;;;;;;;1.85;0.20;;;17.50;93.30;;;;;;5033189;28;20028;-80
2021/05/15 11:35:26;;;;;;;0.40;0.38;;;17.60;90.70;;;;;;5033922;28;20030;-79
2021/05/15 11:38:06;;;;;;;0.40;0.20;;;17.40;90.60;;;;;;5033099;28;20037;-77
2021/05/15 11:40:34;;;;;;;0.13;0.13;;;17.40;95.10;;;;;;5040953;28;20033;-78
2021/05/15 11:43:00;;;;;;;0.32;0.20;;;17.40;90.10;;;;;;5024094;28;20100;-78
2021/05/15 11:45:27;;;;;;;0.10;0.10;;;17.50;93.50;;;;;;5021230;28;20537;-78
2021/05/15 11:48:09;;;;;;;2.05;0.30;;;17.80;96.10;;;;;;5027194;28;20022;-78
2021/05/15 11:50:35;;;;;;;0.55;0.35;;;17.80;87.30;;;;;;5010900;28;20045;-79
2021/05/15 11:53:03;;;;;;;0.20;0.20;;;18.00;90.80;;;;;;5029719;28;20397;-78
2021/05/15 11:55:30;;;;;;;0.38;0.10;;;18.10;83.20;;;;;;5034293;28;20037;-79
2021/05/15 11:58:04;;;;;;;0.30;0.30;;;17.90;88.10;;;;;;5031803;28;20030;-79
2021/05/15 12:00:31;;;;;;;1.92;0.55;;;17.80;90.50;;;;;;5031369;28;20037;-79
2021/05/15 12:02:57;;;;;;;0.32;0.30;;;17.80;90.20;;;;;;5032149;28;20083;-77
2021/05/15 12:05:23;;;;;;;0.10;0.10;;;17.90;88.70;;;;;;5031010;28;20056;-78
2021/05/15 12:07:53;;;;;;;0.20;0.20;;;17.80;89.00;;;;;;5043980;28;20025;-78
2021/05/15 12:10:23;;;;;;;0.30;0.22;;;17.60;87.80;;;;;;5029595;28;20017;-78
2021/05/15 12:12:56;;;;;;;0.20;0.20;;;17.60;89.40;;;;;;5031433;28;20025;-78
2021/05/15 12:15:22;;;;;;;0.52;0.28;;;17.50;91.30;;;;;;5038883;28;20021;-78
2021/05/15 12:17:48;;;;;;;0.45;0.30;;;17.40;90.20;;;;;;5024869;28;20037;-78
2021/05/15 12:20:26;;;;;;;0.45;0.35;;;17.20;89.60;;;;;;5027410;28;20045;-77
2021/05/15 12:23:09;;;;;;;0.50;0.32;;;17.00;90.00;;;;;;5027481;28;20433;-76
2021/05/15 12:25:37;;;;;;;0.30;0.30;;;16.60;92.50;;;;;;5035266;28;20080;-77
2021/05/15 12:28:04;;;;;;;0.40;0.20;;;16.40;92.20;;;;;;5029831;28;20022;-77
2021/05/15 12:30:35;;;;;;;0.40;0.40;;;16.10;93.60;;;;;;5029997;28;20037;-77
2021/05/15 12:33:05;;;;;;;0.57;0.43;;;16.00;95.00;;;;;;5027549;28;20124;-74
2021/05/15 12:35:32;;;;;;;0.40;0.40;;;15.90;93.40;;;;;;5041285;28;20143;-75
2021/05/15 12:37:59;;;;;;;0.52;0.30;;;15.90;95.00;;;;;;5028636;28;20038;-76
2021/05/15 12:40:31;;;;;;;0.70;0.25;;;15.90;95.50;;;;;;5028536;28;20041;-78
2021/05/15 12:43:11;;;;;;;0.50;0.38;;;15.80;97.00;;;;;;5026124;28;20026;-77
2021/05/15 12:45:41;;;;;;;2.85;0.30;;;15.70;97.10;;;;;;5010871;28;20025;-76
2021/05/15 12:48:36;;;;;;;0.30;0.30;;;15.60;99.90;;;;;;5030814;28;20034;-76
2021/05/15 12:51:07;;;;;;;0.85;0.30;;;15.40;97.50;;;;;;5027624;28;20041;-78
2021/05/15 12:53:33;;;;;;;0.30;0.30;;;15.40;99.90;;;;;;5024963;28;20097;-77
2021/05/15 12:55:58;;;;;;;0.30;0.30;;;15.30;99.90;;;;;;5029405;28;20108;-76